Time;durP1;ratioP1;P1;durP2;ratioP2;P2;SDS_P1;SDS_P2;PMS_P1;PMS_P2;Temp;Humidity;BMP_temperature;BMP_pressure;BME280_temperature;BME280_humidity;BME280_pressure;Samples;Min_cycle;Max_cycle;Signal;HPM_P1;HPM_P2
2022/05/17 00:01:42;;;;;;;7.22;2.20;;;19.90;81.30;;;;;;5036721;28;20044;-74
2022/05/17 00:04:07;;;;;;;8.75;2.10;;;19.90;81.30;;;;;;5037191;28;20022;-74
2022/05/17 00:06:34;;;;;;;5.85;1.92;;;19.90;81.30;;;;;;5037059;28;20029;-74
2022/05/17 00:09:00;;;;;;;7.63;1.95;;;19.90;81.40;;;;;;5036799;28;20029;-74
2022/05/17 00:11:26;;;;;;;6.55;2.13;;;19.90;81.50;;;;;;5036917;28;20037;-74
2022/05/17 00:13:52;;;;;;;5.10;1.60;;;19.80;81.50;;;;;;5036653;28;20083;-74
2022/05/17 00:16:18;;;;;;;9.43;1.92;;;19.80;81.50;;;;;;5037471;28;20030;-74
2022/05/17 00:18:43;;;;;;;8.15;3.00;;;19.80;81.50;;;;;;5036894;28;20037;-75
2022/05/17 00:21:09;;;;;;;5.30;1.98;;;19.80;81.60;;;;;;5036677;28;20037;-75
2022/05/17 00:23:38;;;;;;;6.75;2.58;;;19.80;81.80;;;;;;5036270;28;20032;-75
2022/05/17 00:26:05;;;;;;;5.80;2.10;;;19.80;82.00;;;;;;5036713;28;20026;-75
2022/05/17 00:28:31;;;;;;;7.45;1.98;;;19.70;82.00;;;;;;5036340;28;20032;-75
2022/05/17 00:30:58;;;;;;;7.28;1.90;;;19.70;82.10;;;;;;5036304;28;20029;-75
2022/05/17 00:33:24;;;;;;;5.53;1.80;;;19.70;82.10;;;;;;5036402;28;20021;-75
2022/05/17 00:35:50;;;;;;;6.97;2.10;;;19.70;82.10;;;;;;5036261;28;20522;-75
2022/05/17 00:38:17;;;;;;;6.03;1.70;;;19.70;82.10;;;;;;5036191;28;20078;-75
2022/05/17 00:40:42;;;;;;;6.43;2.20;;;19.70;82.00;;;;;;5036094;28;20492;-75
2022/05/17 00:43:09;;;;;;;8.75;2.40;;;19.70;82.00;;;;;;5036386;28;20030;-75
2022/05/17 00:45:39;;;;;;;8.40;2.00;;;19.70;81.90;;;;;;5035903;28;20029;-75
2022/05/17 00:48:05;;;;;;;5.22;2.33;;;19.70;82.00;;;;;;5035807;28;20107;-75
2022/05/17 00:50:38;;;;;;;8.10;2.53;;;19.60;82.00;;;;;;5036307;28;20026;-75
2022/05/17 00:53:04;;;;;;;7.38;2.13;;;19.70;82.10;;;;;;5035737;28;20036;-75
2022/05/17 00:55:43;;;;;;;7.95;2.20;;;19.70;82.20;;;;;;5036137;28;20025;-75
2022/05/17 00:58:08;;;;;;;8.93;2.42;;;19.70;82.30;;;;;;5035730;28;20546;-75
2022/05/17 01:00:39;;;;;;;7.00;2.03;;;19.70;82.30;;;;;;5035751;28;20045;-75
2022/05/17 01:03:07;;;;;;;6.15;2.30;;;19.70;82.30;;;;;;5035635;28;20026;-75
2022/05/17 01:05:39;;;;;;;8.13;2.65;;;19.60;82.30;;;;;;5035980;28;20042;-75
2022/05/17 01:08:06;;;;;;;7.35;2.20;;;19.60;82.40;;;;;;5035612;28;20052;-75
2022/05/17 01:10:32;;;;;;;5.88;1.95;;;19.60;82.40;;;;;;5035916;28;20032;-75
2022/05/17 01:15:44;;;;;;;6.32;2.33;;;19.60;82.50;;;;;;5035623;28;20076;-75
2022/05/17 01:18:10;;;;;;;8.98;2.17;;;19.60;83.00;;;;;;5035812;28;20077;-75
2022/05/17 01:20:36;;;;;;;8.85;2.50;;;19.60;82.50;;;;;;5035400;28;20113;-75
2022/05/17 01:23:02;;;;;;;6.28;2.20;;;19.50;82.50;;;;;;5035142;28;20528;-75
2022/05/17 01:25:28;;;;;;;6.35;2.30;;;19.60;82.60;;;;;;5035509;28;20033;-75
2022/05/17 01:28:07;;;;;;;4.30;1.75;;;19.50;82.50;;;;;;5035655;28;20029;-75
2022/05/17 01:30:33;;;;;;;6.82;1.88;;;19.50;82.60;;;;;;5035290;28;20112;-75
2022/05/17 01:32:59;;;;;;;5.88;2.38;;;19.50;82.60;;;;;;5035487;28;20052;-75
2022/05/17 01:35:25;;;;;;;8.40;2.65;;;19.50;82.70;;;;;;5035380;28;20026;-75
2022/05/17 01:37:54;;;;;;;8.30;2.85;;;19.50;82.80;;;;;;5034790;28;20053;-75
2022/05/17 01:40:20;;;;;;;7.93;2.50;;;19.50;82.90;;;;;;5035121;28;20041;-75
2022/05/17 01:42:46;;;;;;;8.00;3.17;;;19.50;83.60;;;;;;5035187;28;20022;-75
2022/05/17 01:45:12;;;;;;;7.93;2.42;;;19.50;83.00;;;;;;5035173;28;20028;-75
2022/05/17 01:47:38;;;;;;;9.05;3.00;;;19.50;83.00;;;;;;5034487;28;20424;-75
2022/05/17 01:50:04;;;;;;;7.22;2.35;;;19.50;83.00;;;;;;5035079;28;20080;-75
2022/05/17 01:52:29;;;;;;;10.15;3.00;;;19.50;83.10;;;;;;5034942;28;20045;-75
2022/05/17 01:54:55;;;;;;;10.07;3.17;;;19.50;83.00;;;;;;5034792;28;20041;-75
2022/05/17 01:57:21;;;;;;;10.52;2.88;;;19.50;83.10;;;;;;5034982;28;20031;-75
2022/05/17 01:59:46;;;;;;;8.70;2.63;;;19.40;83.10;;;;;;5034859;28;20457;-75
2022/05/17 02:02:12;;;;;;;5.78;2.47;;;19.40;83.20;;;;;;5034251;28;20026;-75
2022/05/17 02:04:37;;;;;;;5.15;2.15;;;19.40;83.40;;;;;;5035148;28;20056;-75
2022/05/17 02:07:03;;;;;;;6.32;2.67;;;19.40;83.50;;;;;;5034813;28;20449;-75
2022/05/17 02:09:29;;;;;;;8.45;2.53;;;19.40;83.50;;;;;;5034466;28;20021;-75
2022/05/17 02:11:54;;;;;;;7.03;3.45;;;19.40;83.50;;;;;;5033696;28;20029;-75
2022/05/17 02:14:20;;;;;;;8.38;2.60;;;19.40;83.40;;;;;;5034537;28;20357;-75
2022/05/17 02:16:46;;;;;;;5.82;2.70;;;19.40;83.40;;;;;;5034506;28;20022;-75
2022/05/17 02:19:12;;;;;;;4.65;2.17;;;19.40;83.40;;;;;;5034611;28;20034;-75
2022/05/17 02:21:39;;;;;;;5.70;2.55;;;19.40;83.40;;;;;;5034560;28;20038;-75
2022/05/17 02:24:05;;;;;;;6.45;2.50;;;19.40;83.30;;;;;;5034362;28;20025;-75
2022/05/17 02:26:32;;;;;;;10.35;2.60;;;19.40;83.20;;;;;;5034189;28;20600;-75
2022/05/17 02:28:57;;;;;;;10.20;3.40;;;19.30;83.10;;;;;;5034432;28;20044;-75
2022/05/17 02:31:23;;;;;;;7.30;2.72;;;19.30;83.10;;;;;;5033950;28;20458;-75
2022/05/17 02:33:48;;;;;;;6.90;2.90;;;19.40;83.10;;;;;;5034057;28;20115;-75
2022/05/17 02:36:14;;;;;;;7.05;3.00;;;19.30;83.00;;;;;;5034290;28;20036;-75
2022/05/17 02:38:40;;;;;;;9.20;2.58;;;19.30;83.00;;;;;;5033858;28;20536;-75
2022/05/17 02:41:06;;;;;;;10.73;3.13;;;19.30;83.20;;;;;;5034036;28;20112;-75
2022/05/17 02:43:32;;;;;;;6.03;2.20;;;19.20;83.20;;;;;;5033790;28;20028;-75
2022/05/17 02:45:58;;;;;;;8.63;3.05;;;19.30;83.30;;;;;;5033432;28;20025;-75
2022/05/17 02:48:24;;;;;;;4.72;2.20;;;19.30;83.40;;;;;;5033617;28;20068;-75
2022/05/17 02:50:49;;;;;;;6.60;2.47;;;19.30;83.40;;;;;;5034076;28;20026;-75
2022/05/17 02:53:15;;;;;;;6.88;2.45;;;19.30;83.20;;;;;;5033611;28;20079;-75
2022/05/17 02:55:40;;;;;;;5.35;2.38;;;19.20;83.20;;;;;;5033974;28;20083;-75
2022/05/17 02:58:06;;;;;;;10.80;2.97;;;19.30;83.40;;;;;;5033360;28;20452;-75
2022/05/17 03:00:32;;;;;;;8.82;2.75;;;19.20;83.30;;;;;;5033668;28;20044;-75
2022/05/17 03:02:58;;;;;;;7.88;2.75;;;19.20;83.40;;;;;;5033466;28;20500;-75
2022/05/17 03:05:24;;;;;;;7.88;2.90;;;19.20;83.40;;;;;;5033502;28;20053;-75
2022/05/17 03:07:50;;;;;;;8.00;2.40;;;19.20;83.50;;;;;;5033664;28;20030;-75
2022/05/17 03:10:17;;;;;;;7.38;2.45;;;19.20;83.60;;;;;;5033627;28;20037;-75
2022/05/17 03:12:43;;;;;;;6.72;2.30;;;19.20;83.50;;;;;;5033499;28;20096;-75
2022/05/17 03:15:12;;;;;;;7.90;2.65;;;19.20;83.50;;;;;;5033365;28;20030;-75
2022/05/17 03:17:38;;;;;;;5.45;2.97;;;19.20;83.50;;;;;;5033692;28;20025;-75
2022/05/17 03:20:04;;;;;;;5.43;2.45;;;19.20;83.60;;;;;;5033412;28;20030;-75
2022/05/17 03:22:30;;;;;;;5.88;2.67;;;19.20;83.60;;;;;;5033456;28;20026;-75
2022/05/17 03:24:55;;;;;;;9.95;2.90;;;19.20;83.60;;;;;;5033590;28;20461;-75
2022/05/17 03:27:21;;;;;;;9.15;3.10;;;19.10;83.70;;;;;;5033291;28;20122;-75
2022/05/17 03:29:47;;;;;;;5.22;2.85;;;19.10;83.80;;;;;;5032816;28;20021;-75
2022/05/17 03:32:13;;;;;;;9.70;2.92;;;19.10;83.90;;;;;;5033505;28;20057;-75
2022/05/17 03:34:38;;;;;;;6.63;2.78;;;19.10;83.90;;;;;;5033335;28;20029;-75
2022/05/17 03:37:04;;;;;;;9.70;3.33;;;19.10;83.90;;;;;;5033450;28;20037;-75
2022/05/17 03:39:30;;;;;;;5.88;2.90;;;19.10;84.00;;;;;;5032759;28;20024;-75
2022/05/17 03:41:56;;;;;;;7.10;2.90;;;19.10;84.20;;;;;;5033310;28;20038;-75
2022/05/17 03:44:21;;;;;;;3.67;2.67;;;19.10;84.20;;;;;;5032951;28;20465;-75
2022/05/17 03:46:47;;;;;;;5.72;2.60;;;19.10;84.30;;;;;;5033077;28;20037;-75
2022/05/17 03:49:12;;;;;;;4.80;2.40;;;19.10;84.20;;;;;;5032913;28;20204;-75
2022/05/17 03:51:38;;;;;;;7.13;2.92;;;19.10;84.10;;;;;;5033011;28;20087;-75
2022/05/17 03:54:04;;;;;;;4.22;2.22;;;19.20;84.00;;;;;;5033226;28;20350;-75
2022/05/17 03:56:30;;;;;;;6.43;2.22;;;19.20;84.00;;;;;;5033067;28;20033;-75
2022/05/17 03:58:55;;;;;;;7.55;3.03;;;19.20;83.90;;;;;;5032863;28;20534;-75
2022/05/17 04:01:21;;;;;;;6.13;2.63;;;19.20;83.90;;;;;;5032735;28;20033;-75
2022/05/17 04:03:47;;;;;;;6.90;2.70;;;19.20;83.90;;;;;;5032948;28;20026;-75
2022/05/17 04:06:12;;;;;;;5.15;2.50;;;19.20;84.00;;;;;;5032758;28;20052;-75
2022/05/17 04:08:38;;;;;;;5.32;2.10;;;19.20;84.10;;;;;;5033177;28;20059;-75
2022/05/17 04:11:05;;;;;;;5.43;2.00;;;19.20;84.20;;;;;;5032846;28;20047;-75
2022/05/17 04:13:32;;;;;;;7.40;2.50;;;19.20;84.30;;;;;;5032794;28;20100;-75
2022/05/17 04:15:58;;;;;;;5.38;2.42;;;19.20;84.40;;;;;;5032931;28;20080;-75
2022/05/17 04:18:24;;;;;;;5.68;2.33;;;19.20;84.40;;;;;;5032830;28;20385;-75
2022/05/17 04:20:50;;;;;;;5.72;2.45;;;19.20;84.40;;;;;;5033095;28;20381;-75
2022/05/17 04:23:15;;;;;;;6.78;2.63;;;19.30;84.60;;;;;;5032824;28;20025;-75
2022/05/17 04:25:41;;;;;;;8.00;3.17;;;19.30;84.70;;;;;;5033009;28;20052;-75
2022/05/17 04:28:07;;;;;;;9.02;3.10;;;19.30;84.80;;;;;;5032698;28;20021;-75
2022/05/17 04:30:33;;;;;;;4.97;2.90;;;19.30;85.00;;;;;;5032531;28;20028;-74
2022/05/17 04:33:01;;;;;;;9.00;3.40;;;19.30;85.20;;;;;;5032565;28;20025;-75
2022/05/17 04:35:27;;;;;;;8.70;3.35;;;19.30;85.40;;;;;;5034840;28;20018;-73
2022/05/17 04:37:53;;;;;;;13.18;3.60;;;19.20;85.50;;;;;;5036485;28;20034;-75
2022/05/17 04:40:20;;;;;;;19.85;5.00;;;19.20;85.70;;;;;;5035872;28;20021;-75
2022/05/17 04:42:47;;;;;;;17.27;4.53;;;19.20;86.10;;;;;;5035983;28;20119;-75
2022/05/17 04:45:14;;;;;;;8.90;3.40;;;19.20;86.30;;;;;;5036267;28;20026;-75
2022/05/17 04:47:42;;;;;;;8.02;2.80;;;19.20;86.50;;;;;;5035940;28;20386;-75
2022/05/17 04:50:08;;;;;;;8.57;3.63;;;19.20;86.60;;;;;;5035983;28;20053;-75
2022/05/17 04:52:34;;;;;;;15.70;5.07;;;19.30;86.70;;;;;;5035713;28;20056;-75
2022/05/17 04:55:00;;;;;;;14.20;3.88;;;19.10;87.40;;;;;;5035924;28;20025;-75
2022/05/17 04:57:26;;;;;;;9.32;3.90;;;19.10;87.70;;;;;;5035830;28;20081;-75
2022/05/17 04:59:52;;;;;;;9.38;3.67;;;19.10;87.70;;;;;;5036132;28;20079;-75
2022/05/17 05:02:18;;;;;;;6.63;2.95;;;19.10;87.70;;;;;;5035907;28;20388;-75
2022/05/17 05:04:43;;;;;;;8.75;3.20;;;19.10;87.80;;;;;;5036043;28;20017;-75
2022/05/17 05:07:09;;;;;;;8.00;3.17;;;19.10;87.80;;;;;;5035694;28;20026;-75
2022/05/17 05:09:34;;;;;;;10.23;3.90;;;19.20;87.80;;;;;;5035441;28;20036;-75
2022/05/17 05:12:00;;;;;;;10.00;4.43;;;19.20;87.80;;;;;;5035333;28;20025;-75
2022/05/17 05:14:26;;;;;;;10.35;4.40;;;19.10;88.20;;;;;;5035830;28;20021;-74
2022/05/17 05:16:52;;;;;;;9.15;4.28;;;19.10;88.40;;;;;;5035727;28;20025;-75
2022/05/17 05:19:18;;;;;;;9.30;3.65;;;19.10;88.60;;;;;;5035351;28;20029;-75
2022/05/17 05:21:44;;;;;;;9.93;3.88;;;19.10;88.80;;;;;;5035574;28;20045;-75
2022/05/17 05:24:11;;;;;;;7.35;3.60;;;19.10;88.80;;;;;;5035298;28;20523;-74
2022/05/17 05:26:38;;;;;;;6.95;3.22;;;19.10;88.70;;;;;;5035290;28;20400;-74
2022/05/17 05:29:05;;;;;;;9.70;3.80;;;19.20;88.50;;;;;;5035088;28;20064;-74
2022/05/17 05:31:30;;;;;;;13.65;4.15;;;19.20;88.60;;;;;;5035209;28;20036;-74
2022/05/17 05:33:56;;;;;;;13.30;3.75;;;19.20;89.20;;;;;;5034664;28;20025;-75
2022/05/17 05:36:22;;;;;;;10.45;4.50;;;19.30;88.70;;;;;;5034938;28;20033;-75
2022/05/17 05:38:48;;;;;;;13.43;5.13;;;19.30;88.90;;;;;;5034707;28;20116;-75
2022/05/17 05:41:14;;;;;;;10.65;4.38;;;19.30;89.00;;;;;;5034555;28;20041;-75
2022/05/17 05:43:40;;;;;;;5.95;3.60;;;19.30;89.30;;;;;;5034724;28;20048;-75
2022/05/17 05:46:06;;;;;;;6.53;3.75;;;19.30;89.60;;;;;;5033299;28;20022;-75
2022/05/17 05:48:32;;;;;;;8.70;4.25;;;19.30;89.70;;;;;;5034789;28;20044;-75
2022/05/17 05:50:58;;;;;;;7.95;4.28;;;19.30;89.70;;;;;;5034611;28;20038;-75
2022/05/17 05:53:24;;;;;;;7.05;4.25;;;19.30;89.80;;;;;;5034248;28;20052;-75
2022/05/17 05:56:03;;;;;;;8.70;4.25;;;19.30;90.00;;;;;;5034401;28;20520;-75
2022/05/17 05:58:34;;;;;;;7.63;4.00;;;19.30;90.10;;;;;;5034323;28;20511;-75
2022/05/17 06:01:00;;;;;;;7.80;4.40;;;19.30;90.20;;;;;;5034437;28;20060;-75
2022/05/17 06:03:27;;;;;;;11.52;5.22;;;19.30;90.30;;;;;;5034441;28;20481;-75
2022/05/17 06:05:53;;;;;;;10.52;4.95;;;19.30;90.50;;;;;;5034191;28;20099;-75
2022/05/17 06:08:19;;;;;;;7.50;4.53;;;19.30;90.70;;;;;;5034278;28;20052;-75
2022/05/17 06:10:45;;;;;;;8.35;4.70;;;19.30;90.70;;;;;;5033703;28;20476;-74
2022/05/17 06:13:13;;;;;;;9.75;4.68;;;19.30;90.80;;;;;;5034325;28;20045;-75
2022/05/17 06:15:40;;;;;;;8.52;4.43;;;19.30;90.80;;;;;;5034002;28;20079;-74
2022/05/17 06:18:06;;;;;;;12.75;4.82;;;19.30;90.80;;;;;;5033628;28;20457;-74
2022/05/17 06:20:33;;;;;;;8.23;4.50;;;19.30;90.90;;;;;;5033831;28;20037;-74
2022/05/17 06:22:59;;;;;;;8.93;4.60;;;19.30;90.90;;;;;;5034208;28;20025;-75
2022/05/17 06:25:24;;;;;;;10.75;5.05;;;19.30;90.80;;;;;;5034142;28;20461;-75
2022/05/17 06:27:50;;;;;;;11.98;4.63;;;19.30;90.80;;;;;;5033959;28;20151;-75
2022/05/17 06:30:16;;;;;;;8.90;2.50;;;19.30;90.60;;;;;;5033733;28;20036;-75
2022/05/17 06:32:42;;;;;;;6.75;2.30;;;19.40;90.30;;;;;;5033907;28;20029;-75
2022/05/17 06:35:08;;;;;;;5.20;1.75;;;19.40;90.10;;;;;;5033772;28;20101;-75
2022/05/17 06:37:34;;;;;;;7.53;2.13;;;19.40;89.70;;;;;;5033165;28;20112;-75
2022/05/17 06:40:00;;;;;;;7.75;2.13;;;19.50;88.60;;;;;;5032999;28;20503;-75
2022/05/17 06:42:27;;;;;;;4.65;1.38;;;19.50;88.10;;;;;;5033298;28;20032;-75
2022/05/17 06:44:54;;;;;;;10.68;1.88;;;19.60;87.10;;;;;;5033272;28;20389;-75
2022/05/17 06:47:19;;;;;;;8.98;2.25;;;19.60;86.20;;;;;;5032795;28;20055;-75
2022/05/17 06:49:45;;;;;;;4.25;1.33;;;19.60;85.20;;;;;;5033213;28;20108;-75
2022/05/17 06:52:11;;;;;;;6.72;1.48;;;19.70;84.80;;;;;;5033717;28;20108;-75
2022/05/17 06:54:36;;;;;;;7.30;1.80;;;19.70;85.10;;;;;;5033577;28;20025;-75
2022/05/17 06:57:04;;;;;;;10.70;1.40;;;19.80;84.90;;;;;;5033151;28;20462;-75
2022/05/17 06:59:31;;;;;;;10.00;2.08;;;19.80;84.60;;;;;;5033377;28;20026;-75
2022/05/17 07:01:57;;;;;;;6.50;1.60;;;19.90;84.40;;;;;;5033137;28;20452;-75
2022/05/17 07:04:22;;;;;;;6.22;2.10;;;20.00;84.10;;;;;;5032953;28;20030;-75
2022/05/17 07:06:48;;;;;;;8.55;2.42;;;20.00;85.20;;;;;;5032954;28;20116;-75
2022/05/17 07:09:14;;;;;;;9.48;2.25;;;20.00;85.70;;;;;;5032818;28;20068;-75
2022/05/17 07:14:24;;;;;;;6.60;1.83;;;20.00;82.80;;;;;;5033080;28;20068;-74
2022/05/17 07:16:50;;;;;;;8.00;1.50;;;20.00;82.30;;;;;;5032954;28;20049;-74
2022/05/17 07:19:16;;;;;;;6.90;2.10;;;20.00;82.10;;;;;;5033055;28;20021;-74
2022/05/17 07:21:41;;;;;;;10.85;3.72;;;20.00;82.90;;;;;;5032675;28;20418;-75
2022/05/17 07:24:07;;;;;;;8.63;3.28;;;20.00;84.50;;;;;;5032855;28;20021;-75
2022/05/17 07:26:32;;;;;;;6.38;2.80;;;20.00;85.40;;;;;;5032618;28;20068;-75
2022/05/17 07:28:58;;;;;;;8.18;3.30;;;20.00;85.90;;;;;;5033035;28;20373;-74
2022/05/17 07:31:24;;;;;;;5.20;3.13;;;20.00;86.50;;;;;;5032714;28;20152;-75
2022/05/17 07:33:49;;;;;;;8.65;3.17;;;20.00;86.70;;;;;;5033055;28;20100;-75
2022/05/17 07:36:15;;;;;;;9.77;2.80;;;20.00;86.90;;;;;;5032936;28;20038;-74
2022/05/17 07:38:40;;;;;;;8.90;2.83;;;19.90;87.00;;;;;;5032466;28;20033;-74
2022/05/17 07:41:06;;;;;;;5.38;2.45;;;20.00;87.20;;;;;;5032956;28;20091;-74
2022/05/17 07:43:32;;;;;;;7.18;2.65;;;20.00;87.80;;;;;;5032730;28;20096;-74
2022/05/17 07:45:57;;;;;;;7.32;3.28;;;20.00;87.90;;;;;;5032547;28;20053;-73
2022/05/17 07:48:25;;;;;;;6.30;3.05;;;20.00;88.20;;;;;;5032485;28;20056;-74
2022/05/17 07:50:51;;;;;;;10.23;3.90;;;20.00;88.20;;;;;;5032620;28;20389;-75
2022/05/17 07:53:19;;;;;;;7.22;3.35;;;20.00;88.70;;;;;;5032546;28;20108;-75
2022/05/17 07:55:46;;;;;;;8.13;3.30;;;20.00;88.70;;;;;;5032851;28;20053;-74
2022/05/17 07:58:13;;;;;;;9.85;3.63;;;20.00;88.40;;;;;;5032630;28;20084;-74
2022/05/17 08:00:40;;;;;;;6.90;3.30;;;20.00;88.20;;;;;;5032254;28;20057;-74
2022/05/17 08:03:08;;;;;;;9.15;3.70;;;20.00;88.10;;;;;;5032333;28;20068;-74
2022/05/17 08:05:34;;;;;;;10.32;4.32;;;20.00;88.40;;;;;;5032760;28;20053;-74
2022/05/17 08:08:00;;;;;;;9.98;4.05;;;20.00;88.70;;;;;;5032528;28;20061;-73
2022/05/17 08:10:25;;;;;;;14.15;3.83;;;20.00;88.90;;;;;;5035031;28;20152;-74
2022/05/17 08:12:52;;;;;;;8.65;3.78;;;20.00;89.80;;;;;;5036196;28;20428;-74
2022/05/17 08:15:19;;;;;;;7.93;3.42;;;20.00;90.00;;;;;;5036076;28;20034;-74
2022/05/17 08:17:45;;;;;;;11.20;3.38;;;20.00;90.00;;;;;;5036510;28;20026;-74
2022/05/17 08:20:11;;;;;;;7.95;3.92;;;20.00;90.00;;;;;;5036417;28;20428;-75
2022/05/17 08:22:39;;;;;;;13.60;4.75;;;20.00;90.00;;;;;;5036096;28;20041;-75
2022/05/17 08:27:49;;;;;;;10.57;3.75;;;20.00;90.00;;;;;;5036397;28;20393;-75
2022/05/17 08:30:18;;;;;;;10.07;3.58;;;20.00;90.00;;;;;;5035807;28;20030;-75
2022/05/17 08:35:42;;;;;;;11.52;3.95;;;20.00;89.50;;;;;;5035743;28;20086;-75
2022/05/17 08:38:09;;;;;;;7.82;3.70;;;20.00;89.30;;;;;;5036063;28;20025;-75
2022/05/17 08:40:48;;;;;;;7.00;3.70;;;20.00;89.20;;;;;;5035897;28;20057;-75
2022/05/17 08:43:39;;;;;;;9.70;4.00;;;20.10;89.10;;;;;;5035778;28;20056;-75
2022/05/17 08:46:08;;;;;;;11.98;3.45;;;20.10;89.40;;;;;;5035401;28;20388;-74
2022/05/17 08:48:52;;;;;;;10.25;3.03;;;20.10;88.30;;;;;;5035619;28;20029;-75
2022/05/17 08:51:25;;;;;;;6.93;2.67;;;20.10;88.50;;;;;;5035673;28;20028;-75
2022/05/17 08:53:52;;;;;;;8.52;2.63;;;20.10;87.50;;;;;;5035420;28;20117;-75
2022/05/17 08:56:18;;;;;;;5.65;1.98;;;20.10;87.20;;;;;;5035680;28;20025;-75
2022/05/17 08:58:48;;;;;;;10.57;2.60;;;20.20;86.90;;;;;;5035425;28;20029;-75
2022/05/17 09:01:28;;;;;;;10.38;2.60;;;20.20;86.20;;;;;;5034896;28;20037;-75
2022/05/17 09:04:03;;;;;;;11.32;2.70;;;20.20;85.40;;;;;;5035337;28;20060;-75
2022/05/17 09:06:38;;;;;;;8.73;2.90;;;20.20;85.80;;;;;;5035380;28;20523;-75
2022/05/17 09:09:16;;;;;;;10.00;2.33;;;20.10;86.40;;;;;;5035611;28;20030;-75
2022/05/17 09:11:51;;;;;;;6.05;1.70;;;20.10;86.60;;;;;;5035483;28;20029;-75
2022/05/17 09:14:19;;;;;;;9.40;1.40;;;20.10;85.60;;;;;;5035361;28;20090;-75
2022/05/17 09:17:01;;;;;;;7.25;1.58;;;20.00;84.70;;;;;;5034881;28;20469;-75
2022/05/17 09:19:27;;;;;;;8.55;1.58;;;19.90;84.00;;;;;;5035316;28;20026;-75
2022/05/17 09:21:59;;;;;;;11.75;1.58;;;20.00;84.00;;;;;;5034840;28;20477;-75
2022/05/17 09:24:32;;;;;;;5.30;1.27;;;20.00;84.80;;;;;;5035282;28;20033;-75
2022/05/17 09:27:21;;;;;;;6.53;1.10;;;20.10;83.00;;;;;;5035136;28;20036;-74
2022/05/17 09:29:49;;;;;;;5.28;1.38;;;20.20;83.10;;;;;;5035630;28;20048;-75
2022/05/17 09:32:30;;;;;;;10.57;1.40;;;20.20;82.60;;;;;;5035307;28;20059;-75
2022/05/17 09:35:03;;;;;;;7.30;1.13;;;20.20;81.70;;;;;;5034806;28;20073;-75
2022/05/17 09:37:36;;;;;;;11.05;2.10;;;20.10;82.10;;;;;;5034722;28;20021;-75
2022/05/17 09:40:05;;;;;;;7.32;2.20;;;20.30;83.40;;;;;;5034886;28;20025;-74
2022/05/17 09:42:44;;;;;;;12.80;3.47;;;20.40;83.10;;;;;;5034651;28;20037;-75
2022/05/17 09:45:18;;;;;;;6.68;2.50;;;20.50;83.90;;;;;;5034738;28;20047;-75
2022/05/17 09:48:00;;;;;;;8.18;2.80;;;20.60;84.30;;;;;;5034467;28;20525;-76
2022/05/17 09:53:15;;;;;;;9.48;3.00;;;20.60;84.40;;;;;;5034784;28;20076;-75
2022/05/17 09:55:48;;;;;;;9.52;3.40;;;20.70;84.30;;;;;;5034588;28;20082;-75
2022/05/17 09:58:33;;;;;;;10.38;3.10;;;20.70;84.80;;;;;;5034591;28;20025;-75
2022/05/17 10:01:01;;;;;;;10.88;3.33;;;20.60;84.80;;;;;;5034532;28;20038;-75
2022/05/17 10:03:34;;;;;;;10.07;2.88;;;20.60;84.60;;;;;;5034430;28;20029;-75
2022/05/17 10:06:13;;;;;;;12.55;2.88;;;20.60;84.60;;;;;;5034457;28;20025;-75
2022/05/17 10:08:45;;;;;;;7.88;2.80;;;20.60;84.50;;;;;;5034643;28;20025;-75
2022/05/17 10:11:23;;;;;;;9.88;2.13;;;20.70;84.40;;;;;;5034616;28;20063;-75
2022/05/17 10:14:15;;;;;;;13.13;3.30;;;20.70;84.50;;;;;;5034234;28;20029;-75
2022/05/17 10:16:47;;;;;;;10.48;3.35;;;20.80;84.40;;;;;;5034095;28;20485;-75
2022/05/17 10:19:26;;;;;;;12.93;3.20;;;21.00;86.00;;;;;;5034465;28;20109;-75
2022/05/17 10:22:06;;;;;;;11.88;3.25;;;21.30;83.20;;;;;;5034154;28;20029;-75
2022/05/17 10:24:57;;;;;;;11.02;3.05;;;21.60;82.10;;;;;;5033682;28;20032;-75
2022/05/17 10:27:32;;;;;;;9.00;3.10;;;21.70;82.70;;;;;;5032727;28;20033;-75
2022/05/17 10:30:10;;;;;;;8.63;2.63;;;21.80;80.60;;;;;;5034265;28;20049;-74
2022/05/17 10:32:42;;;;;;;12.18;3.08;;;21.90;80.80;;;;;;5033934;28;20033;-74
2022/05/17 10:35:50;;;;;;;13.25;3.67;;;22.00;81.40;;;;;;5034040;28;20061;-75
2022/05/17 10:38:23;;;;;;;12.48;3.50;;;22.20;80.10;;;;;;5011725;28;20116;-75
2022/05/17 10:40:50;;;;;;;;;;;22.10;78.30;;;;;;5030244;28;20033;-75
2022/05/17 10:43:29;;;;;;;10.40;2.97;;;22.20;77.70;;;;;;5033581;28;19944;-75
2022/05/17 10:46:18;;;;;;;10.57;3.92;;;22.20;78.40;;;;;;5033671;28;20472;-75
2022/05/17 10:48:48;;;;;;;14.35;3.33;;;22.10;77.80;;;;;;5033446;28;20485;-75
2022/05/17 10:51:26;;;;;;;8.38;3.10;;;22.10;77.70;;;;;;5033813;28;20053;-75
2022/05/17 10:53:51;;;;;;;7.65;3.15;;;22.10;77.80;;;;;;5033528;28;20365;-75
2022/05/17 10:56:40;;;;;;;10.07;3.53;;;22.10;79.30;;;;;;5033252;28;20116;-74
2022/05/17 10:59:19;;;;;;;10.45;2.70;;;22.20;78.30;;;;;;5033566;28;20072;-75
2022/05/17 11:01:59;;;;;;;14.70;3.30;;;22.30;77.40;;;;;;5033359;28;20501;-74
2022/05/17 11:04:27;;;;;;;9.02;3.20;;;22.40;78.20;;;;;;5033462;28;20075;-75
2022/05/17 11:07:18;;;;;;;10.13;3.42;;;22.60;77.90;;;;;;5033417;28;20033;-75
2022/05/17 11:10:08;;;;;;;9.10;3.35;;;22.80;76.20;;;;;;5032968;28;20026;-75
2022/05/17 11:12:43;;;;;;;9.80;3.58;;;22.70;75.70;;;;;;5033512;28;20029;-75
2022/05/17 11:15:20;;;;;;;10.23;3.33;;;22.50;75.00;;;;;;5033124;28;20436;-75
2022/05/17 11:17:54;;;;;;;10.93;2.90;;;22.30;76.50;;;;;;5033321;28;20025;-75
2022/05/17 11:20:32;;;;;;;9.45;3.05;;;22.30;76.80;;;;;;5033017;28;20036;-75
2022/05/17 11:23:20;;;;;;;9.48;3.45;;;22.30;76.70;;;;;;5033158;28;20116;-75
2022/05/17 11:25:51;;;;;;;10.07;3.10;;;22.40;76.40;;;;;;5033187;28;20551;-75
2022/05/17 11:28:38;;;;;;;9.35;2.58;;;22.60;76.10;;;;;;5033380;28;20080;-75
2022/05/17 11:31:21;;;;;;;5.38;2.50;;;22.60;75.30;;;;;;5033063;28;20488;-75
2022/05/17 11:33:47;;;;;;;9.25;3.35;;;22.80;75.50;;;;;;5033647;28;20032;-75
2022/05/17 11:36:33;;;;;;;6.95;2.60;;;22.90;75.70;;;;;;5033083;28;20489;-75
2022/05/17 11:39:00;;;;;;;10.93;3.42;;;23.00;74.50;;;;;;5032932;28;20109;-75
2022/05/17 11:41:34;;;;;;;13.75;2.92;;;22.90;73.70;;;;;;5033213;28;20122;-75
2022/05/17 11:44:13;;;;;;;10.20;2.97;;;22.80;75.40;;;;;;5033025;28;20029;-75
2022/05/17 11:46:38;;;;;;;7.90;2.85;;;22.90;75.30;;;;;;5037014;28;20057;-75
2022/05/17 11:49:07;;;;;;;8.95;2.53;;;22.90;75.40;;;;;;5037490;28;20033;-75
2022/05/17 11:51:36;;;;;;;7.93;2.95;;;23.00;75.00;;;;;;5036996;28;20026;-75
2022/05/17 11:54:03;;;;;;;6.65;2.50;;;23.00;73.90;;;;;;5037210;28;20095;-75
2022/05/17 11:56:32;;;;;;;7.07;1.90;;;22.90;72.10;;;;;;5037187;28;20380;-75
2022/05/17 11:59:29;;;;;;;8.93;2.35;;;22.90;73.40;;;;;;5037174;28;20033;-75
2022/05/17 12:02:08;;;;;;;10.80;2.38;;;23.00;73.90;;;;;;5036655;28;20096;-75
2022/05/17 12:04:42;;;;;;;9.48;2.28;;;22.90;73.30;;;;;;5036854;28;20435;-75
2022/05/17 12:07:29;;;;;;;8.63;2.33;;;22.90;73.40;;;;;;5036729;28;20024;-75
2022/05/17 12:10:12;;;;;;;6.13;2.58;;;23.00;74.10;;;;;;5036685;28;20030;-75
2022/05/17 12:13:04;;;;;;;5.20;2.35;;;23.20;73.10;;;;;;5036680;28;20096;-75
2022/05/17 12:15:53;;;;;;;6.72;1.95;;;23.30;72.80;;;;;;5036887;28;20033;-75
2022/05/17 12:18:31;;;;;;;6.57;2.17;;;23.40;72.90;;;;;;5036770;28;20022;-76
2022/05/17 12:21:15;;;;;;;9.20;2.60;;;23.50;73.50;;;;;;5036126;28;20021;-76
2022/05/17 12:24:06;;;;;;;6.57;2.40;;;23.60;73.30;;;;;;5036455;28;20373;-76
2022/05/17 12:26:38;;;;;;;9.40;2.38;;;23.70;73.20;;;;;;5036720;28;20096;-75
2022/05/17 12:32:01;;;;;;;11.00;3.70;;;24.00;72.40;;;;;;5036704;28;20076;-76
2022/05/17 12:34:27;;;;;;;7.88;3.33;;;24.30;71.50;;;;;;5036584;28;20030;-75
2022/05/17 12:37:06;;;;;;;6.70;3.10;;;24.40;70.50;;;;;;5036846;28;20026;-75
2022/05/17 12:45:03;;;;;;;9.25;4.13;;;24.90;70.50;;;;;;5035771;28;20028;-76
2022/05/17 12:47:44;;;;;;;9.75;4.10;;;25.10;69.40;;;;;;5035806;28;20057;-75
2022/05/17 12:50:19;;;;;;;6.95;3.20;;;25.10;68.00;;;;;;5035892;28;20477;-76
2022/05/17 12:52:47;;;;;;;12.95;3.40;;;25.10;69.60;;;;;;5036013;28;20040;-76
2022/05/17 12:55:20;;;;;;;10.35;3.35;;;25.20;70.60;;;;;;5035239;28;20024;-76
2022/05/17 12:57:46;;;;;;;13.15;3.50;;;25.20;69.60;;;;;;5035698;28;20528;-76
2022/05/17 13:00:14;;;;;;;6.28;3.60;;;25.30;68.50;;;;;;5035712;28;20113;-76
2022/05/17 13:02:52;;;;;;;8.35;3.40;;;25.40;68.60;;;;;;5035317;28;20037;-75
2022/05/17 13:05:29;;;;;;;9.85;3.55;;;25.40;67.80;;;;;;5035870;28;20385;-75
2022/05/17 13:08:18;;;;;;;8.93;3.42;;;25.50;68.60;;;;;;5035629;28;20045;-76
2022/05/17 13:10:59;;;;;;;6.57;3.72;;;25.70;67.50;;;;;;5027916;28;20037;-75
2022/05/17 13:13:26;;;;;;;7.38;3.13;;;25.80;67.30;;;;;;5035820;28;20028;-76
2022/05/17 13:15:59;;;;;;;7.90;3.00;;;26.00;66.40;;;;;;5035670;28;20060;-76
2022/05/17 13:18:40;;;;;;;8.55;2.55;;;26.00;67.10;;;;;;5035510;28;20052;-76
2022/05/17 13:21:11;;;;;;;8.27;3.13;;;26.10;66.70;;;;;;5034951;28;20057;-76